createdAt,value
2023-06-30T00:00:04.633Z,84.43
2023-06-30T00:01:04.637Z,85.19
2023-06-30T00:02:04.620Z,86.30
2023-06-30T00:03:04.729Z,85.30
2023-06-30T00:04:04.692Z,84.39
2023-06-30T00:05:04.691Z,85.70
2023-06-30T00:06:04.581Z,85.50
2023-06-30T00:07:04.567Z,84.19
2023-06-30T00:08:04.574Z,84.99
2023-06-30T00:09:04.541Z,84.49
2023-06-30T00:10:04.560Z,85.19
2023-06-30T00:11:04.532Z,84.49
2023-06-30T00:12:04.485Z,85.44
2023-06-30T00:13:04.473Z,86.04
2023-06-30T00:14:04.498Z,86.04
2023-06-30T00:15:04.484Z,86.55
2023-06-30T00:16:04.474Z,86.04
2023-06-30T00:17:04.455Z,86.15
2023-06-30T00:18:04.470Z,85.03
2023-06-30T00:19:04.410Z,86.25
2023-06-30T00:20:04.425Z,84.73
2023-06-30T00:21:04.410Z,86.85
2023-06-30T00:22:04.392Z,87.46
2023-06-30T00:23:04.401Z,86.04
2023-06-30T00:24:04.360Z,85.44
2023-06-30T00:25:04.370Z,86.04
2023-06-30T00:26:04.362Z,85.24
2023-06-30T00:27:04.336Z,85.94
2023-06-30T00:28:04.330Z,86.65
2023-06-30T00:29:04.319Z,86.85
2023-06-30T00:30:04.323Z,86.15
2023-06-30T00:31:04.333Z,86.15
2023-06-30T00:32:04.290Z,86.51
2023-06-30T00:33:04.361Z,86.30
2023-06-30T00:34:04.282Z,85.60
2023-06-30T00:35:04.242Z,85.80
2023-06-30T00:36:04.270Z,85.90
2023-06-30T00:37:04.279Z,85.80
2023-06-30T00:38:04.271Z,86.00
2023-06-30T00:39:04.221Z,86.25
2023-06-30T00:40:04.209Z,86.35
2023-06-30T00:41:04.237Z,86.55
2023-06-30T01:03:41.814Z,89.01
2023-06-30T01:04:47.219Z,88.01
2023-06-30T01:05:49.167Z,88.10
2023-06-30T01:06:40.125Z,87.86
2023-06-30T01:07:40.289Z,87.66
2023-06-30T01:08:40.142Z,87.26
2023-06-30T01:09:41.092Z,86.65
2023-06-30T01:10:40.035Z,87.05
2023-06-30T01:11:40.094Z,87.26
2023-06-30T01:12:40.111Z,87.66
2023-06-30T01:13:41.909Z,87.56
2023-06-30T01:14:40.066Z,87.26
2023-06-30T01:15:40.604Z,87.05
2023-06-30T01:16:50.563Z,86.71
2023-06-30T01:17:40.060Z,86.21
2023-06-30T01:18:41.194Z,86.51
2023-06-30T01:19:40.056Z,86.61
2023-06-30T01:20:41.959Z,87.12
2023-06-30T01:21:40.023Z,86.91
2023-06-30T01:22:40.202Z,87.82
2023-06-30T01:23:39.999Z,86.81
2023-06-30T01:24:41.488Z,86.71
2023-06-30T01:25:39.990Z,87.01
2023-06-30T01:26:40.026Z,88.06
2023-06-30T01:27:39.920Z,88.57
2023-06-30T01:29:40.679Z,89.07
2023-06-30T01:29:46.142Z,89.28
2023-06-30T01:31:01.765Z,88.71
2023-06-30T01:31:48.123Z,89.52
